createdAt,value
2019-01-26T00:00:39.627Z,-0.70
2019-01-26T00:03:11.532Z,-0.70
2019-01-26T00:05:42.620Z,-0.60
2019-01-26T00:08:13.834Z,-0.60
2019-01-26T00:10:45.000Z,-0.60
2019-01-26T00:13:16.184Z,-0.60
2019-01-26T00:15:48.620Z,-0.60
2019-01-26T00:18:19.711Z,-0.70
2019-01-26T00:20:50.858Z,-0.70
2019-01-26T00:23:22.212Z,-0.60
2019-01-26T00:25:53.396Z,-0.70
2019-01-26T00:28:24.531Z,-0.50
2019-01-26T00:30:55.798Z,-0.50
2019-01-26T00:33:26.916Z,-0.60
2019-01-26T00:35:58.264Z,-0.60
2019-01-26T00:38:29.390Z,-0.60
2019-01-26T00:41:00.478Z,-0.60
2019-01-26T00:43:31.647Z,-0.60
2019-01-26T00:46:02.703Z,-0.60
2019-01-26T00:48:33.749Z,-0.70
2019-01-26T00:51:04.846Z,-0.60
2019-01-26T00:53:35.997Z,-0.70
2019-01-26T00:56:07.059Z,-0.70
2019-01-26T00:58:38.146Z,-0.60
2019-01-26T01:01:09.299Z,-0.60
2019-01-26T01:03:40.575Z,-0.50
2019-01-26T01:06:25.966Z,-0.60
2019-01-26T01:08:56.090Z,-0.70
2019-01-26T01:11:27.548Z,-0.60
2019-01-26T01:13:58.659Z,-0.60
2019-01-26T01:16:35.864Z,-0.50
2019-01-26T01:19:02.488Z,-0.40
2019-01-26T01:21:33.665Z,-0.40
2019-01-26T01:24:05.330Z,-0.40
2019-01-26T01:26:36.381Z,-0.40
2019-01-26T01:29:07.469Z,-0.40
2019-01-26T01:31:38.545Z,-0.40
2019-01-26T01:34:09.624Z,-0.40
2019-01-26T01:36:40.703Z,-0.40
2019-01-26T01:39:11.759Z,-0.40
2019-01-26T01:41:42.899Z,-0.40
2019-01-26T01:44:15.691Z,-0.50
2019-01-26T01:46:47.183Z,-0.40
2019-01-26T01:49:18.247Z,-0.40
2019-01-26T01:51:49.344Z,-0.30
2019-01-26T01:54:20.395Z,-0.20
2019-01-26T01:56:51.495Z,-0.20
2019-01-26T01:59:22.563Z,-0.30
2019-01-26T02:01:53.661Z,-0.30
2019-01-26T02:04:24.827Z,-0.30
2019-01-26T02:06:55.923Z,-0.30
2019-01-26T02:09:27.004Z,-0.30
2019-01-26T02:11:58.077Z,-0.30
2019-01-26T02:14:29.157Z,-0.30
2019-01-26T02:17:00.522Z,-0.20
2019-01-26T02:19:31.667Z,-0.20
2019-01-26T02:22:02.772Z,-0.20
2019-01-26T02:24:34.119Z,-0.10
2019-01-26T02:27:05.193Z,-0.10
2019-01-26T02:29:36.263Z,-0.20
2019-01-26T02:32:08.455Z,-0.20
2019-01-26T02:34:39.522Z,-0.20
2019-01-26T02:37:10.664Z,-0.10
2019-01-26T02:39:41.821Z,-0.10
2019-01-26T02:42:14.231Z,-0.10
2019-01-26T02:44:45.356Z,-0.10
2019-01-26T02:47:16.485Z,0.00
2019-01-26T02:49:47.566Z,0.10
2019-01-26T02:52:18.710Z,0.20
2019-01-26T02:54:49.816Z,0.20
2019-01-26T02:57:20.900Z,0.10
2019-01-26T02:59:52.006Z,0.10
2019-01-26T03:02:23.126Z,0.20
2019-01-26T03:04:54.204Z,0.20
2019-01-26T03:07:25.256Z,0.30
2019-01-26T03:09:56.319Z,0.30
2019-01-26T03:12:27.404Z,0.30
2019-01-26T03:14:58.469Z,0.30
2019-01-26T03:17:29.899Z,0.40
2019-01-26T03:20:00.974Z,0.40
2019-01-26T03:22:32.134Z,0.40
2019-01-26T03:25:03.539Z,0.40
2019-01-26T03:27:34.599Z,0.30
2019-01-26T03:30:09.085Z,0.40
2019-01-26T03:32:40.154Z,0.40
2019-01-26T03:35:11.249Z,0.40
2019-01-26T03:37:42.336Z,0.40
2019-01-26T03:40:14.887Z,0.30
2019-01-26T03:42:45.931Z,0.30
2019-01-26T03:45:17.159Z,0.40
2019-01-26T03:47:48.342Z,0.40
2019-01-26T03:50:19.632Z,0.40
2019-01-26T03:52:51.759Z,0.40
2019-01-26T03:55:22.926Z,0.30
2019-01-26T03:57:53.968Z,0.30
2019-01-26T04:00:26.936Z,0.30
2019-01-26T04:02:58.303Z,0.30
2019-01-26T04:05:29.394Z,0.30
2019-01-26T04:08:00.468Z,0.30
2019-01-26T04:10:31.559Z,0.40
2019-01-26T04:13:02.633Z,0.30
2019-01-26T04:15:34.576Z,0.30
2019-01-26T04:18:05.656Z,0.20
2019-01-26T04:20:36.745Z,0.10
2019-01-26T04:23:07.862Z,-0.10
2019-01-26T04:25:39.215Z,-0.20
2019-01-26T04:28:13.341Z,-0.20
2019-01-26T04:30:44.418Z,-0.20
2019-01-26T04:33:15.553Z,-0.20
2019-01-26T04:35:46.680Z,-0.20
2019-01-26T04:38:17.803Z,-0.30
2019-01-26T04:40:48.901Z,-0.30
2019-01-26T04:43:19.959Z,-0.30
2019-01-26T04:45:51.106Z,-0.10
2019-01-26T04:48:22.187Z,0.00
2019-01-26T04:50:53.226Z,0.00
2019-01-26T04:53:24.305Z,0.00
2019-01-26T04:55:55.449Z,0.10
2019-01-26T04:58:26.519Z,0.00
2019-01-26T05:00:57.652Z,0.00
2019-01-26T05:03:28.723Z,0.20
2019-01-26T05:05:59.771Z,0.20
2019-01-26T05:08:30.876Z,0.10
2019-01-26T05:11:01.954Z,0.10
2019-01-26T05:13:33.105Z,0.00
2019-01-26T05:16:04.477Z,0.00
2019-01-26T05:18:35.557Z,0.10
2019-01-26T05:21:06.597Z,0.00
2019-01-26T05:23:37.678Z,0.10
2019-01-26T05:26:09.042Z,0.10
2019-01-26T05:28:40.141Z,0.20
2019-01-26T05:31:11.205Z,0.20
2019-01-26T05:33:42.285Z,0.20
2019-01-26T05:36:13.385Z,0.20
2019-01-26T05:38:44.477Z,0.20
2019-01-26T05:41:15.530Z,0.20
2019-01-26T05:43:46.588Z,0.20
2019-01-26T05:46:17.648Z,0.20
2019-01-26T05:48:48.711Z,0.20
2019-01-26T05:51:19.781Z,0.30
2019-01-26T05:53:50.847Z,0.30
2019-01-26T05:56:21.929Z,0.40
2019-01-26T05:58:53.001Z,0.50
2019-01-26T06:01:24.174Z,0.50
2019-01-26T06:03:55.266Z,0.50
2019-01-26T06:06:26.330Z,0.50
2019-01-26T06:08:57.601Z,0.50
2019-01-26T06:11:28.661Z,0.60
2019-01-26T06:13:59.772Z,0.50
2019-01-26T06:16:30.811Z,0.50
2019-01-26T06:19:01.954Z,0.60
2019-01-26T06:21:33.025Z,0.50
2019-01-26T06:24:04.144Z,0.50
2019-01-26T06:26:35.480Z,0.40
2019-01-26T06:29:06.593Z,0.40
2019-01-26T06:31:37.654Z,0.40
2019-01-26T06:34:08.778Z,0.40
2019-01-26T06:36:39.831Z,0.40
2019-01-26T06:39:10.913Z,0.40
2019-01-26T06:41:42.029Z,0.30
2019-01-26T06:44:13.251Z,0.30
2019-01-26T06:46:44.357Z,0.40
2019-01-26T06:49:15.529Z,0.40
2019-01-26T06:51:55.844Z,0.40
2019-01-26T06:54:27.002Z,0.50
2019-01-26T06:56:58.102Z,0.50
2019-01-26T06:59:29.191Z,0.60
2019-01-26T07:02:00.329Z,0.60
2019-01-26T07:04:59.657Z,0.60
2019-01-26T07:07:30.815Z,0.60
2019-01-26T07:10:01.981Z,0.60
2019-01-26T07:12:33.145Z,0.70
2019-01-26T07:15:04.827Z,0.70
2019-01-26T07:17:35.923Z,0.60
2019-01-26T07:20:08.661Z,0.60
2019-01-26T07:22:39.957Z,0.60
2019-01-26T07:25:11.037Z,0.60
2019-01-26T07:27:42.995Z,0.70
2019-01-26T07:30:15.847Z,0.70
2019-01-26T07:32:47.051Z,0.70
2019-01-26T07:35:18.282Z,0.70
2019-01-26T07:37:49.535Z,0.70
2019-01-26T07:40:20.835Z,0.70
2019-01-26T07:42:52.019Z,0.70
2019-01-26T07:45:23.310Z,0.70
2019-01-26T07:47:54.392Z,0.80
2019-01-26T07:50:25.843Z,0.70
2019-01-26T07:52:56.988Z,0.80
2019-01-26T07:55:28.060Z,0.90
2019-01-26T07:57:59.155Z,1.00
2019-01-26T08:00:30.261Z,0.90
2019-01-26T08:03:01.457Z,1.00
2019-01-26T08:05:32.601Z,0.90
2019-01-26T08:08:03.934Z,0.90
2019-01-26T08:10:35.087Z,0.90
2019-01-26T08:13:06.240Z,1.00
2019-01-26T08:15:38.562Z,1.00
2019-01-26T08:18:10.516Z,0.90
2019-01-26T08:20:41.652Z,1.00
2019-01-26T08:23:12.902Z,1.00
2019-01-26T08:25:45.105Z,1.00
2019-01-26T08:34:41.230Z,1.20
2019-01-26T08:37:12.332Z,1.20
2019-01-26T08:39:43.518Z,1.10
2019-01-26T08:42:14.608Z,1.20
2019-01-26T08:44:45.726Z,1.10
2019-01-26T08:47:16.869Z,1.10
2019-01-26T08:49:47.971Z,1.10
2019-01-26T08:52:19.134Z,1.20
2019-01-26T08:54:50.334Z,1.30
2019-01-26T08:57:21.573Z,1.40
2019-01-26T08:59:52.730Z,1.40
2019-01-26T09:02:46.926Z,1.30
2019-01-26T09:05:18.722Z,1.30
2019-01-26T09:07:50.177Z,1.40
2019-01-26T09:10:21.437Z,1.40
2019-01-26T09:12:52.618Z,1.60
2019-01-26T09:15:23.973Z,1.70
2019-01-26T09:17:55.056Z,1.70
2019-01-26T09:20:26.241Z,1.70
2019-01-26T09:22:57.360Z,1.70
2019-01-26T09:25:28.426Z,1.80
2019-01-26T09:27:59.780Z,1.80
2019-01-26T09:30:30.918Z,1.70
2019-01-26T09:33:13.539Z,1.80
2019-01-26T09:35:50.497Z,1.90
2019-01-26T09:38:21.736Z,1.70
2019-01-26T09:40:52.926Z,1.80
2019-01-26T09:43:24.016Z,1.70
2019-01-26T09:45:55.197Z,1.80
2019-01-26T09:48:26.278Z,1.90
2019-01-26T09:50:57.418Z,2.10
2019-01-26T09:53:28.596Z,2.20
2019-01-26T09:55:59.743Z,2.50
2019-01-26T09:58:30.856Z,2.50
2019-01-26T10:01:02.296Z,2.60
2019-01-26T10:04:05.727Z,2.60
2019-01-26T10:06:36.800Z,2.50
2019-01-26T10:12:32.392Z,2.50
2019-01-26T10:15:03.492Z,2.60
2019-01-26T10:23:58.565Z,3.10
2019-01-26T10:26:29.634Z,3.40
2019-01-26T10:29:00.724Z,3.60
2019-01-26T10:31:31.944Z,3.50
2019-01-26T10:34:03.072Z,3.50
2019-01-26T10:37:31.219Z,3.50
2019-01-26T10:40:22.881Z,3.70
2019-01-26T10:46:18.496Z,3.90
2019-01-26T10:48:49.545Z,4.00
2019-01-26T10:54:32.943Z,3.70
2019-01-26T11:00:40.268Z,3.10
2019-01-26T11:03:13.904Z,3.20
2019-01-26T11:06:04.200Z,3.20
2019-01-26T11:08:35.412Z,3.20
2019-01-26T11:11:06.544Z,3.20
2019-01-26T11:13:37.802Z,3.30
2019-01-26T11:19:44.996Z,3.40
2019-01-26T11:22:16.053Z,3.50
2019-01-26T11:25:20.402Z,3.60
2019-01-26T11:28:04.960Z,3.60
2019-01-26T11:30:39.162Z,3.50
2019-01-26T11:33:10.366Z,3.60
2019-01-26T11:35:41.512Z,3.50
2019-01-26T11:38:13.756Z,3.50
2019-01-26T11:40:44.957Z,3.60
2019-01-26T11:43:16.017Z,3.80
2019-01-26T11:45:56.669Z,3.90
2019-01-26T11:48:31.293Z,4.10
2019-01-26T11:51:27.556Z,4.20
2019-01-26T11:53:58.652Z,4.10
2019-01-26T11:57:00.589Z,4.10
2019-01-26T11:59:31.895Z,3.80
2019-01-26T12:02:15.633Z,3.70
2019-01-26T12:17:51.133Z,3.90
2019-01-26T12:23:48.188Z,3.80
2019-01-26T12:26:19.508Z,3.80
2019-01-26T12:29:02.248Z,3.70
2019-01-26T12:31:33.382Z,3.60
2019-01-26T12:34:04.599Z,3.60
2019-01-26T12:36:37.662Z,3.60
2019-01-26T12:55:32.081Z,3.60
2019-01-26T13:01:27.314Z,3.40
2019-01-26T13:03:58.389Z,3.60
2019-01-26T13:06:41.414Z,3.70
2019-01-26T13:09:13.230Z,3.60
2019-01-26T13:18:10.925Z,3.70
2019-01-26T13:34:31.013Z,3.90
2019-01-26T13:37:02.079Z,4.10
2019-01-26T13:39:44.991Z,4.10
2019-01-26T13:42:16.027Z,4.20
2019-01-26T13:44:47.100Z,4.20
2019-01-26T13:47:18.263Z,4.20
2019-01-26T13:49:49.340Z,4.10
2019-01-26T13:52:20.389Z,4.30
2019-01-26T13:54:51.653Z,4.50
2019-01-26T13:57:22.967Z,4.70
2019-01-26T13:59:54.087Z,5.00
2019-01-26T14:02:25.166Z,6.00
2019-01-26T14:04:56.219Z,6.20
2019-01-26T14:07:27.349Z,6.80
2019-01-26T14:09:58.433Z,7.30
2019-01-26T14:12:29.861Z,7.30
2019-01-26T14:15:01.024Z,7.10
2019-01-26T14:17:32.165Z,6.80
2019-01-26T14:20:03.265Z,6.70
2019-01-26T14:22:34.345Z,6.70
2019-01-26T14:25:07.282Z,7.00
2019-01-26T14:27:49.981Z,6.90
2019-01-26T14:30:24.267Z,7.10
2019-01-26T14:32:55.340Z,9.20
2019-01-26T14:35:26.418Z,10.60
2019-01-26T14:37:57.591Z,11.10
2019-01-26T14:40:28.672Z,11.60
2019-01-26T14:42:59.771Z,11.90
2019-01-26T14:45:30.829Z,10.20
2019-01-26T14:48:03.531Z,9.00
2019-01-26T14:50:34.574Z,7.90
2019-01-26T14:53:05.852Z,7.20
2019-01-26T14:55:36.895Z,6.90
2019-01-26T14:58:08.145Z,6.50
2019-01-26T15:00:39.317Z,6.80
2019-01-26T15:03:10.472Z,7.90
2019-01-26T15:05:53.551Z,9.20
2019-01-26T15:08:24.657Z,9.70
2019-01-26T15:10:55.705Z,9.20
2019-01-26T15:13:26.798Z,7.60
2019-01-26T15:15:57.859Z,6.60
2019-01-26T15:18:28.969Z,6.10
2019-01-26T15:21:00.035Z,5.70
2019-01-26T15:23:32.189Z,5.30
2019-01-26T15:26:03.240Z,5.00
2019-01-26T15:28:34.396Z,4.80
2019-01-26T15:31:05.949Z,4.90
2019-01-26T15:33:37.037Z,4.80
2019-01-26T15:36:09.189Z,4.80
2019-01-26T15:38:40.841Z,4.80
2019-01-26T15:41:11.921Z,4.90
2019-01-26T15:43:43.027Z,4.70
2019-01-26T15:46:14.079Z,4.50
2019-01-26T15:48:45.457Z,4.50
2019-01-26T15:51:16.550Z,4.50
2019-01-26T15:53:47.658Z,4.60
2019-01-26T15:56:18.706Z,4.70
2019-01-26T15:58:50.132Z,4.80
2019-01-26T16:01:21.280Z,4.90
2019-01-26T16:03:52.408Z,4.80
2019-01-26T16:06:23.601Z,4.70
2019-01-26T16:08:54.728Z,4.60
2019-01-26T16:11:25.777Z,4.60
2019-01-26T16:13:56.902Z,4.50
2019-01-26T16:16:28.006Z,4.40
2019-01-26T16:18:59.134Z,4.20
2019-01-26T16:21:30.243Z,4.00
2019-01-26T16:24:01.303Z,3.90
2019-01-26T16:26:32.379Z,3.80
2019-01-26T16:29:03.414Z,3.70
2019-01-26T16:31:34.527Z,3.60
2019-01-26T16:34:05.586Z,3.70
2019-01-26T16:36:36.607Z,3.60
2019-01-26T16:39:10.597Z,3.60
2019-01-26T16:41:41.649Z,3.60
2019-01-26T16:44:12.742Z,3.50
2019-01-26T16:46:43.874Z,3.50
2019-01-26T16:49:14.967Z,3.40
2019-01-26T16:51:46.160Z,3.40
2019-01-26T16:54:17.236Z,3.40
2019-01-26T16:56:48.343Z,3.20
2019-01-26T16:59:19.620Z,3.20
2019-01-26T17:01:50.737Z,3.10
2019-01-26T17:04:21.840Z,3.10
2019-01-26T17:06:52.910Z,3.20
2019-01-26T17:09:24.063Z,3.20
2019-01-26T17:11:55.140Z,3.30
2019-01-26T17:14:26.255Z,3.30
2019-01-26T17:16:57.348Z,3.30
2019-01-26T17:19:28.518Z,3.40
2019-01-26T17:21:59.734Z,3.40
2019-01-26T17:24:30.782Z,3.40
2019-01-26T17:27:02.288Z,3.40
2019-01-26T17:29:33.372Z,3.40
2019-01-26T17:32:04.645Z,3.30
2019-01-26T17:34:35.690Z,3.30
2019-01-26T17:37:06.812Z,3.30
2019-01-26T17:39:37.965Z,3.30
2019-01-26T17:42:09.082Z,3.20
2019-01-26T17:44:40.135Z,3.20
2019-01-26T17:47:11.253Z,3.20
2019-01-26T17:49:42.373Z,3.20
2019-01-26T17:52:14.380Z,3.20
2019-01-26T17:54:45.516Z,3.20
2019-01-26T17:57:18.181Z,3.30
2019-01-26T17:59:49.666Z,3.30
2019-01-26T18:02:20.719Z,3.30
2019-01-26T18:04:51.860Z,3.30
2019-01-26T18:07:23.000Z,3.20
2019-01-26T18:09:54.140Z,3.20
2019-01-26T18:12:25.259Z,3.10
2019-01-26T18:14:56.342Z,2.90
2019-01-26T18:17:27.460Z,2.80
2019-01-26T18:19:58.637Z,2.70
2019-01-26T18:22:29.757Z,2.60
2019-01-26T18:25:00.847Z,2.60
2019-01-26T18:27:32.011Z,2.60
2019-01-26T18:30:03.107Z,2.50
2019-01-26T18:32:35.235Z,2.50
2019-01-26T18:35:07.123Z,2.40
2019-01-26T18:37:38.280Z,2.30
2019-01-26T18:40:12.904Z,2.20
2019-01-26T18:42:44.049Z,2.10
2019-01-26T18:45:16.190Z,2.20
2019-01-26T18:47:47.316Z,2.30
2019-01-26T18:50:24.350Z,2.30
2019-01-26T18:52:55.424Z,2.30
2019-01-26T18:55:26.510Z,2.30
2019-01-26T18:57:57.643Z,2.20
2019-01-26T19:00:43.954Z,2.10
2019-01-26T19:03:58.940Z,2.10
2019-01-26T19:06:30.134Z,2.10
2019-01-26T19:09:01.180Z,2.20
2019-01-26T19:11:33.854Z,2.20
2019-01-26T19:14:05.388Z,2.20
2019-01-26T19:16:37.826Z,2.20
2019-01-26T19:19:08.884Z,2.30
2019-01-26T19:21:40.037Z,2.30
2019-01-26T19:24:11.170Z,2.40
2019-01-26T19:26:42.226Z,2.40
2019-01-26T19:29:13.575Z,2.50
2019-01-26T19:31:44.828Z,2.50
2019-01-26T19:34:16.067Z,2.60
2019-01-26T19:36:47.276Z,2.60
2019-01-26T19:39:18.371Z,2.70
2019-01-26T19:41:49.533Z,2.70
2019-01-26T19:44:20.861Z,2.80
2019-01-26T19:46:52.022Z,2.90
2019-01-26T19:49:23.125Z,2.90
2019-01-26T19:51:54.184Z,2.80
2019-01-26T19:54:25.287Z,2.80
2019-01-26T19:56:56.460Z,2.70
2019-01-26T19:59:27.740Z,2.60
2019-01-26T20:01:59.172Z,2.60
2019-01-26T20:04:30.287Z,2.60
2019-01-26T20:07:01.489Z,2.50
2019-01-26T20:09:32.634Z,2.50
2019-01-26T20:12:03.774Z,2.50
2019-01-26T20:14:35.083Z,2.50
2019-01-26T20:17:06.148Z,2.60
2019-01-26T20:19:37.354Z,2.80
2019-01-26T20:22:08.552Z,2.80
2019-01-26T20:24:40.524Z,2.80
2019-01-26T20:27:11.929Z,2.70
2019-01-26T20:29:43.109Z,2.60
2019-01-26T20:32:14.240Z,2.60
2019-01-26T20:34:45.357Z,2.60
2019-01-26T20:37:16.464Z,2.60
2019-01-26T20:39:47.725Z,2.60
2019-01-26T20:42:18.792Z,2.60
2019-01-26T20:44:50.163Z,2.50
2019-01-26T20:47:21.261Z,2.50
2019-01-26T20:49:52.347Z,2.40
2019-01-26T20:52:23.488Z,2.40
2019-01-26T20:54:54.567Z,2.30
2019-01-26T20:57:25.694Z,2.30
2019-01-26T20:59:58.106Z,2.20
2019-01-26T21:02:29.424Z,2.20
2019-01-26T21:05:00.534Z,2.20
2019-01-26T21:07:31.683Z,2.20
2019-01-26T21:10:02.758Z,2.10
2019-01-26T21:12:34.933Z,2.20
2019-01-26T21:15:06.639Z,2.10
2019-01-26T21:17:37.800Z,2.10
2019-01-26T21:20:10.375Z,2.10
2019-01-26T21:22:41.507Z,2.10
2019-01-26T21:25:12.982Z,2.10
2019-01-26T21:27:44.120Z,2.00
2019-01-26T21:30:21.028Z,2.00
2019-01-26T21:32:52.081Z,2.10
2019-01-26T21:35:23.878Z,2.00
2019-01-26T21:37:55.096Z,2.00
2019-01-26T21:40:28.215Z,2.10
2019-01-26T21:42:59.942Z,2.00
2019-01-26T21:45:31.049Z,2.00
2019-01-26T21:48:02.111Z,2.00
2019-01-26T21:50:33.956Z,1.90
2019-01-26T21:53:05.116Z,1.90
2019-01-26T21:55:36.240Z,1.90
2019-01-26T21:58:07.294Z,1.80
2019-01-26T22:00:38.467Z,1.70
2019-01-26T22:03:09.877Z,1.70
2019-01-26T22:05:41.063Z,1.60
2019-01-26T22:08:12.194Z,1.50
2019-01-26T22:10:43.260Z,1.60
2019-01-26T22:13:14.438Z,1.50
2019-01-26T22:15:45.498Z,1.50
2019-01-26T22:18:17.701Z,1.50
2019-01-26T22:20:48.757Z,1.60
2019-01-26T22:23:19.826Z,1.60
2019-01-26T22:25:50.908Z,1.60
2019-01-26T22:28:22.048Z,1.60
2019-01-26T22:30:53.121Z,1.70
2019-01-26T22:33:24.336Z,1.60
2019-01-26T22:35:55.386Z,1.70
2019-01-26T22:38:26.503Z,1.70
2019-01-26T22:40:57.550Z,1.70
2019-01-26T22:43:28.655Z,1.70
2019-01-26T22:45:59.683Z,1.70
2019-01-26T22:48:30.877Z,1.70
2019-01-26T22:51:01.953Z,1.60
2019-01-26T22:53:34.019Z,1.60
2019-01-26T22:56:05.270Z,1.50
2019-01-26T22:58:36.358Z,1.60
2019-01-26T23:01:30.119Z,1.50
2019-01-26T23:04:38.267Z,1.60
2019-01-26T23:07:41.702Z,1.60
2019-01-26T23:10:55.884Z,1.60
2019-01-26T23:14:12.579Z,1.60
2019-01-26T23:17:19.310Z,1.50
2019-01-26T23:20:43.717Z,1.50
2019-01-26T23:23:54.256Z,1.50
2019-01-26T23:27:14.484Z,1.50
2019-01-26T23:30:47.577Z,1.50
2019-01-26T23:33:18.921Z,1.40
2019-01-26T23:35:50.100Z,1.30
2019-01-26T23:38:21.293Z,1.30
2019-01-26T23:40:52.351Z,1.30
2019-01-26T23:43:23.434Z,1.20
2019-01-26T23:45:54.718Z,1.10
2019-01-26T23:48:25.779Z,1.10
2019-01-26T23:50:56.912Z,1.00
2019-01-26T23:53:28.023Z,1.00
2019-01-26T23:55:59.076Z,1.00
2019-01-26T23:58:30.194Z,0.90
